Time;durP1;ratioP1;P1;durP2;ratioP2;P2;SDS_P1;SDS_P2;PMS_P1;PMS_P2;Temp;Humidity;BMP_temperature;BMP_pressure;BME280_temperature;BME280_humidity;BME280_pressure;Samples;Min_cycle;Max_cycle;Signal;HPM_P1;HPM_P2
2023/06/04 00:00:35;;;;;;;;;;;;;;;23.68;62.22;98719.38;2087723;28;20453;-54
2023/06/04 00:01:37;;;;;;;;;;;;;;;23.68;62.28;98716.69;2086442;28;19932;-54
2023/06/04 00:02:38;;;;;;;;;;;;;;;23.67;62.34;98720.41;2084404;28;20022;-50
2023/06/04 00:03:39;;;;;;;;;;;;;;;23.68;62.26;98723.94;2084336;28;19974;-52
2023/06/04 00:04:40;;;;;;;;;;;;;;;23.67;62.65;98720.41;2085843;28;19924;-51
2023/06/04 00:05:41;;;;;;;;;;;;;;;23.68;62.51;98721.25;2086524;28;19920;-51
2023/06/04 00:06:43;;;;;;;;;;;;;;;23.67;62.19;98720.41;2090160;28;20632;-51
2023/06/04 00:07:44;;;;;;;;;;;;;;;23.66;62.55;98721.50;2086870;28;19920;-54
2023/06/04 00:08:45;;;;;;;;;;;;;;;23.67;62.07;98714.19;2090758;28;20006;-56
2023/06/04 00:09:46;;;;;;;;;;;;;;;23.67;62.21;98715.00;2087575;28;19932;-55
2023/06/04 00:10:48;;;;;;;;;;;;;;;23.67;61.98;98714.19;2089763;28;19964;-52
2023/06/04 00:11:48;;;;;;;;;;;;;;;23.67;62.04;98715.00;2087414;28;20888;-51
2023/06/04 00:12:50;;;;;;;;;;;;;;;23.68;61.96;98710.41;2087923;28;19924;-57
2023/06/04 00:13:50;;;;;;;;;;;;;;;23.68;61.94;98710.41;2085777;28;20736;-51
2023/06/04 00:14:52;;;;;;;;;;;;;;;23.67;61.92;98715.00;2088248;28;19921;-54
2023/06/04 00:15:52;;;;;;;;;;;;;;;23.67;62.26;98704.19;2086096;28;19971;-52
2023/06/04 00:16:55;;;;;;;;;;;;;;;23.66;62.06;98713.38;2087011;28;19920;-53
2023/06/04 00:17:56;;;;;;;;;;;;;;;23.67;62.22;98714.19;2087184;28;19990;-54
2023/06/04 00:18:58;;;;;;;;;;;;;;;23.66;62.03;98712.56;2087238;28;19964;-49
2023/06/04 00:19:58;;;;;;;;;;;;;;;23.65;61.92;98706.28;2088733;28;20454;-53
2023/06/04 00:20:59;;;;;;;;;;;;;;;23.66;62.15;98709.84;2086988;28;19927;-54
2023/06/04 00:22:00;;;;;;;;;;;;;;;23.65;61.85;98709.00;2086539;28;19963;-56
2023/06/04 00:23:02;;;;;;;;;;;;;;;23.66;61.83;98715.25;2084152;28;20315;-52
2023/06/04 00:24:02;;;;;;;;;;;;;;;23.66;62.08;98707.13;2091723;28;20051;-51
2023/06/04 00:25:04;;;;;;;;;;;;;;;23.66;62.15;98709.84;2087657;28;19935;-49
2023/06/04 00:26:04;;;;;;;;;;;;;;;23.66;62.20;98707.13;2079909;28;20371;-54
2023/06/04 00:27:06;;;;;;;;;;;;;;;23.64;62.02;98708.19;2086142;28;19921;-53
2023/06/04 00:28:07;;;;;;;;;;;;;;;23.66;61.99;98707.13;2085719;28;19932;-55
2023/06/04 00:29:08;;;;;;;;;;;;;;;23.66;62.14;98705.25;2083380;28;20514;-56
2023/06/04 00:30:09;;;;;;;;;;;;;;;23.66;62.12;98702.53;2081652;28;19928;-53
2023/06/04 00:31:12;;;;;;;;;;;;;;;23.66;61.86;98707.97;2087068;28;19924;-56
2023/06/04 00:32:14;;;;;;;;;;;;;;;23.66;62.03;98710.66;2084821;28;20390;-51
2023/06/04 00:33:15;;;;;;;;;;;;;;;23.67;62.12;98714.19;2086312;28;19963;-53
2023/06/04 00:34:16;;;;;;;;;;;;;;;23.67;62.10;98712.28;2082743;28;20020;-52
2023/06/04 00:35:18;;;;;;;;;;;;;;;23.67;62.08;98704.19;2083580;28;19964;-54
2023/06/04 00:36:18;;;;;;;;;;;;;;;23.65;62.00;98706.28;2086623;28;19974;-52
2023/06/04 00:37:21;;;;;;;;;;;;;;;23.66;62.07;98712.56;2082658;28;19924;-56
2023/06/04 00:38:22;;;;;;;;;;;;;;;23.65;61.98;98717.13;2084590;28;19955;-56
2023/06/04 00:39:23;;;;;;;;;;;;;;;23.65;61.97;98709.00;2086627;28;19924;-57
2023/06/04 00:40:23;;;;;;;;;;;;;;;23.64;62.10;98713.59;2088529;28;20003;-52
2023/06/04 00:41:26;;;;;;;;;;;;;;;23.64;62.24;98715.47;2086484;28;19928;-55
2023/06/04 00:42:26;;;;;;;;;;;;;;;23.64;62.23;98716.28;2089405;28;19925;-55
2023/06/04 00:43:28;;;;;;;;;;;;;;;23.65;62.30;98717.13;2083174;28;20051;-51
2023/06/04 00:44:29;;;;;;;;;;;;;;;23.66;62.04;98712.56;2081412;28;19966;-56
2023/06/04 00:45:30;;;;;;;;;;;;;;;23.63;62.21;98714.66;2087333;28;19985;-52
2023/06/04 00:46:31;;;;;;;;;;;;;;;23.63;62.34;98709.25;2086427;28;19931;-53
2023/06/04 00:47:34;;;;;;;;;;;;;;;23.64;62.23;98716.28;2089969;28;21432;-52
2023/06/04 00:48:36;;;;;;;;;;;;;;;23.64;62.18;98710.06;2086677;28;19993;-55
2023/06/04 00:49:38;;;;;;;;;;;;;;;23.64;62.21;98710.06;2088337;28;19951;-51
2023/06/04 00:50:39;;;;;;;;;;;;;;;23.63;62.43;98713.84;2087706;28;19986;-54
2023/06/04 00:51:40;;;;;;;;;;;;;;;23.63;62.13;98709.25;2085744;28;19928;-56
2023/06/04 00:52:41;;;;;;;;;;;;;;;23.64;62.18;98705.47;2082525;28;20763;-52
2023/06/04 00:53:42;;;;;;;;;;;;;;;23.66;62.27;98707.13;2079444;28;20060;-50
2023/06/04 00:54:43;;;;;;;;;;;;;;;23.65;62.26;98706.28;2081731;28;19921;-56
2023/06/04 00:55:44;;;;;;;;;;;;;;;23.64;62.47;98705.47;2085326;28;20631;-53
2023/06/04 00:56:48;;;;;;;;;;;;;;;23.66;62.25;98707.97;2085538;28;20003;-57
2023/06/04 00:57:49;;;;;;;;;;;;;;;23.66;62.25;98704.44;2088491;28;19936;-55
2023/06/04 00:58:50;;;;;;;;;;;;;;;23.65;62.32;98706.28;2083100;28;19971;-52
2023/06/04 00:59:51;;;;;;;;;;;;;;;23.64;62.24;98704.66;2089407;28;19921;-49
2023/06/04 01:00:56;;;;;;;;;;;;;;;23.66;62.25;98707.13;2089720;28;20027;-53
2023/06/04 01:01:59;;;;;;;;;;;;;;;23.65;62.37;98706.28;2088683;28;19928;-51
2023/06/04 01:03:05;;;;;;;;;;;;;;;23.67;62.24;98708.78;2081636;28;20043;-52
2023/06/04 01:04:09;;;;;;;;;;;;;;;23.65;62.12;98706.28;2082145;28;19924;-53
2023/06/04 01:05:14;;;;;;;;;;;;;;;23.64;62.41;98702.75;2084619;28;20544;-53
2023/06/04 01:06:21;;;;;;;;;;;;;;;23.66;62.19;98704.44;2086801;28;19982;-50
2023/06/04 01:07:21;;;;;;;;;;;;;;;23.66;62.32;98707.13;2085268;28;19925;-54
2023/06/04 01:08:24;;;;;;;;;;;;;;;23.65;62.31;98706.28;2087110;28;19979;-52
2023/06/04 01:09:26;;;;;;;;;;;;;;;23.65;62.76;98709.00;2088111;28;20035;-54
2023/06/04 01:10:27;;;;;;;;;;;;;;;23.64;62.41;98708.19;2088602;28;19925;-52
2023/06/04 01:11:31;;;;;;;;;;;;;;;23.63;62.59;98703.84;2088007;28;19985;-50
2023/06/04 01:12:32;;;;;;;;;;;;;;;23.64;63.02;98710.06;2087034;28;19920;-52
2023/06/04 01:13:33;;;;;;;;;;;;;;;23.62;62.34;98712.16;2081992;28;20179;-54
2023/06/04 01:14:35;;;;;;;;;;;;;;;23.62;63.32;98710.31;2084497;28;19924;-52
2023/06/04 01:15:36;;;;;;;;;;;;;;;23.61;62.48;98715.94;2086517;28;19969;-50
2023/06/04 01:16:50;;;;;;;;;;;;;;;23.64;62.61;98710.06;2085745;28;19924;-52
2023/06/04 01:17:52;;;;;;;;;;;;;;;23.61;62.63;98710.53;2088210;28;19920;-52
2023/06/04 01:18:57;;;;;;;;;;;;;;;23.63;62.36;98708.44;2086959;28;20464;-50
2023/06/04 01:20:05;;;;;;;;;;;;;;;23.63;62.61;98720.06;2087757;28;19921;-52
2023/06/04 01:21:08;;;;;;;;;;;;;;;23.63;62.23;98713.84;2086309;28;19927;-52
2023/06/04 01:22:11;;;;;;;;;;;;;;;23.63;62.62;98714.66;2078937;28;20583;-51
2023/06/04 01:23:20;;;;;;;;;;;;;;;23.64;62.34;98716.28;2086511;28;20294;-52
2023/06/04 01:24:22;;;;;;;;;;;;;;;23.63;62.39;98708.44;2089089;28;20018;-56
2023/06/04 01:25:26;;;;;;;;;;;;;;;23.63;62.59;98713.84;2081736;28;20426;-53
2023/06/04 01:26:27;;;;;;;;;;;;;;;23.63;62.41;98711.13;2083440;28;20477;-53
2023/06/04 01:27:29;;;;;;;;;;;;;;;23.64;62.49;98713.59;2079256;28;19928;-51
2023/06/04 01:28:30;;;;;;;;;;;;;;;23.63;62.73;98711.13;2083810;28;21188;-51
2023/06/04 01:29:32;;;;;;;;;;;;;;;23.64;62.51;98704.66;2087578;28;19927;-52
2023/06/04 01:30:33;;;;;;;;;;;;;;;23.64;62.38;98704.66;2086862;28;20401;-52
2023/06/04 01:31:34;;;;;;;;;;;;;;;23.63;62.47;98703.00;2088128;28;20336;-52
2023/06/04 01:32:35;;;;;;;;;;;;;;;23.64;62.54;98704.66;2087604;28;20008;-52
2023/06/04 01:33:37;;;;;;;;;;;;;;;23.62;62.46;98707.59;2085047;28;20455;-53
2023/06/04 01:34:44;;;;;;;;;;;;;;;23.63;62.41;98703.84;2085136;28;19928;-53
2023/06/04 01:35:46;;;;;;;;;;;;;;;23.64;62.49;98701.94;2087448;28;19959;-51
2023/06/04 01:36:46;;;;;;;;;;;;;;;23.60;62.73;98703.47;2082769;28;20019;-52
2023/06/04 01:37:48;;;;;;;;;;;;;;;23.60;62.55;98706.19;2084570;28;20425;-52
2023/06/04 01:38:49;;;;;;;;;;;;;;;23.60;62.63;98712.44;2087474;28;19985;-54
2023/06/04 01:39:50;;;;;;;;;;;;;;;23.61;62.81;98707.81;2089410;28;20341;-53
2023/06/04 01:40:52;;;;;;;;;;;;;;;23.63;62.48;98703.00;2090723;28;19932;-52
2023/06/04 01:41:54;;;;;;;;;;;;;;;23.62;62.66;98702.19;2085325;28;19932;-52
2023/06/04 01:42:55;;;;;;;;;;;;;;;23.62;62.63;98704.06;2083073;28;19924;-52
2023/06/04 01:43:57;;;;;;;;;;;;;;;23.63;62.59;98698.41;2088175;28;20359;-54
2023/06/04 01:44:57;;;;;;;;;;;;;;;23.63;62.36;98694.88;2084827;28;20515;-53
2023/06/04 01:45:58;;;;;;;;;;;;;;;23.62;62.58;98701.34;2083306;28;19986;-53
2023/06/04 01:46:59;;;;;;;;;;;;;;;23.60;62.88;98703.47;2085656;28;19975;-51
2023/06/04 01:48:02;;;;;;;;;;;;;;;23.61;62.57;98700.53;2086210;28;19925;-54
2023/06/04 01:49:03;;;;;;;;;;;;;;;23.61;62.73;98699.72;2089637;28;19972;-53
2023/06/04 01:50:09;;;;;;;;;;;;;;;23.61;62.69;98703.22;2088462;28;20029;-51
2023/06/04 01:51:09;;;;;;;;;;;;;;;23.60;62.50;98704.31;2090645;28;20357;-54
2023/06/04 01:52:11;;;;;;;;;;;;;;;23.61;62.54;98697.00;2087053;28;19932;-53
2023/06/04 01:53:12;;;;;;;;;;;;;;;23.60;62.77;98701.59;2082248;28;20388;-53
2023/06/04 01:54:13;;;;;;;;;;;;;;;23.62;62.57;98699.50;2086663;28;19928;-52
2023/06/04 01:55:15;;;;;;;;;;;;;;;23.63;62.48;98697.59;2089676;28;20018;-49
2023/06/04 01:56:17;;;;;;;;;;;;;;;23.61;62.50;98694.28;2087218;28;20027;-52
2023/06/04 01:57:17;;;;;;;;;;;;;;;23.62;62.48;98695.94;2085526;28;19932;-51
2023/06/04 01:58:22;;;;;;;;;;;;;;;23.62;62.50;98693.22;2085106;28;19924;-51
2023/06/04 01:59:23;;;;;;;;;;;;;;;23.60;62.51;98701.59;2083521;28;19989;-51
2023/06/04 02:00:24;;;;;;;;;;;;;;;23.61;62.63;98692.41;2086474;28;20018;-51
2023/06/04 02:01:25;;;;;;;;;;;;;;;23.63;62.48;98694.88;2087985;28;19989;-53
2023/06/04 02:02:26;;;;;;;;;;;;;;;23.62;62.65;98693.22;2081523;28;19924;-50
2023/06/04 02:03:28;;;;;;;;;;;;;;;23.62;62.47;98687.81;2089928;28;20002;-50
2023/06/04 02:04:28;;;;;;;;;;;;;;;23.62;62.60;98690.50;2085327;28;19974;-53
2023/06/04 02:05:31;;;;;;;;;;;;;;;23.62;62.59;98688.66;2090979;28;20440;-52
2023/06/04 02:06:32;;;;;;;;;;;;;;;23.62;62.55;98685.94;2090899;28;19970;-55
2023/06/04 02:07:34;;;;;;;;;;;;;;;23.62;62.53;98690.50;2090325;28;19936;-53
2023/06/04 02:08:36;;;;;;;;;;;;;;;23.61;62.64;98688.88;2086843;28;19963;-51
2023/06/04 02:09:37;;;;;;;;;;;;;;;23.62;62.46;98685.09;2084383;28;19963;-52
2023/06/04 02:10:38;;;;;;;;;;;;;;;23.61;62.37;98686.16;2087656;28;20397;-50
2023/06/04 02:11:39;;;;;;;;;;;;;;;23.61;62.61;98688.88;2084716;28;19928;-51
2023/06/04 02:12:41;;;;;;;;;;;;;;;23.60;62.69;98688.06;2084931;28;19920;-53
2023/06/04 02:13:42;;;;;;;;;;;;;;;23.60;62.55;98681.81;2087340;28;20448;-51
2023/06/04 02:14:45;;;;;;;;;;;;;;;23.61;62.57;98686.16;2088780;28;19967;-52
2023/06/04 02:15:46;;;;;;;;;;;;;;;23.62;62.55;98690.50;2089297;28;19971;-52
2023/06/04 02:16:49;;;;;;;;;;;;;;;23.62;62.51;98690.50;2085920;28;20014;-53
2023/06/04 02:17:51;;;;;;;;;;;;;;;23.61;62.26;98684.28;2085847;28;19928;-53
2023/06/04 02:18:51;;;;;;;;;;;;;;;23.62;62.33;98690.50;2086088;28;19977;-52
2023/06/04 02:19:54;;;;;;;;;;;;;;;23.60;62.53;98688.06;2083678;28;19997;-54
2023/06/04 02:20:56;;;;;;;;;;;;;;;23.60;62.66;98685.34;2088504;28;19930;-56
2023/06/04 02:21:58;;;;;;;;;;;;;;;23.59;62.50;98683.69;2088166;28;19924;-53
2023/06/04 02:22:58;;;;;;;;;;;;;;;23.60;62.60;98687.25;2085763;28;20032;-49
2023/06/04 02:24:00;;;;;;;;;;;;;;;23.59;62.67;98685.56;2088395;28;19927;-54
2023/06/04 02:25:00;;;;;;;;;;;;;;;23.60;62.73;98692.66;2087295;28;19988;-54
2023/06/04 02:26:02;;;;;;;;;;;;;;;23.59;62.70;98691.00;2086767;28;19932;-55
2023/06/04 02:27:02;;;;;;;;;;;;;;;23.59;62.57;98696.41;2081779;28;19970;-55
2023/06/04 02:28:04;;;;;;;;;;;;;;;23.58;62.52;98695.59;2082262;28;21267;-56
2023/06/04 02:29:04;;;;;;;;;;;;;;;23.59;62.72;98696.41;2086670;28;19936;-56
2023/06/04 02:30:07;;;;;;;;;;;;;;;23.58;62.43;98702.88;2083876;28;19921;-56
2023/06/04 02:31:07;;;;;;;;;;;;;;;23.58;62.81;98700.19;2085124;28;19982;-54
2023/06/04 02:32:09;;;;;;;;;;;;;;;23.58;62.48;98705.59;2085069;28;19928;-54
2023/06/04 02:33:10;;;;;;;;;;;;;;;23.59;62.59;98694.50;2082862;28;19924;-55
2023/06/04 02:34:11;;;;;;;;;;;;;;;23.58;62.66;98690.16;2086603;28;20540;-52
2023/06/04 02:35:12;;;;;;;;;;;;;;;23.60;62.36;98689.94;2093172;28;19925;-53
2023/06/04 02:36:17;;;;;;;;;;;;;;;23.58;62.56;98695.59;2088634;28;20319;-55
2023/06/04 02:37:17;;;;;;;;;;;;;;;23.58;62.56;98698.28;2088408;28;19927;-54
2023/06/04 02:38:19;;;;;;;;;;;;;;;23.58;62.61;98695.59;2091067;28;19943;-50
2023/06/04 02:39:19;;;;;;;;;;;;;;;23.59;62.43;98696.41;2090126;28;20370;-53
2023/06/04 02:40:20;;;;;;;;;;;;;;;23.61;62.42;98702.41;2090394;28;19955;-52
2023/06/04 02:41:22;;;;;;;;;;;;;;;23.58;62.54;98694.75;2091698;28;20705;-53
2023/06/04 02:42:22;;;;;;;;;;;;;;;23.58;62.72;98700.19;2085941;28;19947;-55
2023/06/04 02:43:24;;;;;;;;;;;;;;;23.57;62.69;98685.00;2088492;28;20346;-52
2023/06/04 02:44:24;;;;;;;;;;;;;;;23.57;62.65;98693.94;2089472;28;19932;-52
2023/06/04 02:45:26;;;;;;;;;;;;;;;23.57;62.73;98687.72;2090097;28;19921;-53
2023/06/04 02:46:26;;;;;;;;;;;;;;;23.57;62.58;98693.94;2089038;28;19927;-53
2023/06/04 02:47:28;;;;;;;;;;;;;;;23.56;62.44;98692.28;2090605;28;19920;-55
2023/06/04 02:48:28;;;;;;;;;;;;;;;23.56;62.64;98692.28;2088687;28;19928;-54
2023/06/04 02:49:30;;;;;;;;;;;;;;;23.57;63.26;98693.13;2090880;28;19928;-53
2023/06/04 02:50:30;;;;;;;;;;;;;;;23.54;62.90;98696.28;2089697;28;20700;-53
2023/06/04 02:51:33;;;;;;;;;;;;;;;23.53;62.91;98690.03;2088881;28;19982;-53
2023/06/04 02:52:36;;;;;;;;;;;;;;;23.55;62.83;98696.06;2089221;28;19932;-53
2023/06/04 02:53:38;;;;;;;;;;;;;;;23.57;62.80;98695.84;2088806;28;19932;-53
2023/06/04 02:54:38;;;;;;;;;;;;;;;23.56;62.61;98694.16;2090128;28;20435;-53
2023/06/04 02:55:41;;;;;;;;;;;;;;;23.57;62.85;98698.53;2089008;28;19936;-55
2023/06/04 02:56:43;;;;;;;;;;;;;;;23.56;62.61;98697.69;2080587;28;20990;-53
2023/06/04 02:57:44;;;;;;;;;;;;;;;23.54;62.92;98698.97;2078402;28;20809;-52
2023/06/04 02:58:52;;;;;;;;;;;;;;;23.54;62.87;98699.84;2085563;28;19946;-52
2023/06/04 02:59:55;;;;;;;;;;;;;;;23.55;62.71;98695.25;2086547;28;19988;-54
2023/06/04 03:00:55;;;;;;;;;;;;;;;23.55;62.75;98697.94;2087488;28;20108;-52
2023/06/04 03:01:57;;;;;;;;;;;;;;;23.57;62.63;98690.41;2089330;28;19952;-52
2023/06/04 03:03:01;;;;;;;;;;;;;;;23.57;62.68;98695.84;2083892;28;19924;-53
2023/06/04 03:04:04;;;;;;;;;;;;;;;23.57;62.63;98690.41;2086466;28;19935;-54
2023/06/04 03:05:05;;;;;;;;;;;;;;;23.56;62.96;98692.28;2087451;28;19966;-53
2023/06/04 03:06:06;;;;;;;;;;;;;;;23.55;62.86;98687.13;2088547;28;19951;-55
2023/06/04 03:07:11;;;;;;;;;;;;;;;23.56;62.75;98688.75;2085386;28;19930;-54
2023/06/04 03:08:12;;;;;;;;;;;;;;;23.54;62.87;98688.16;2089417;28;20523;-55
2023/06/04 03:09:13;;;;;;;;;;;;;;;23.53;62.93;98686.50;2086098;28;19963;-54
2023/06/04 03:10:15;;;;;;;;;;;;;;;23.52;62.98;98676.75;2082292;28;19936;-54
2023/06/04 03:11:16;;;;;;;;;;;;;;;23.52;63.07;98683.00;2086148;28;19924;-54
2023/06/04 03:12:17;;;;;;;;;;;;;;;23.53;63.05;98681.09;2085280;28;20578;-54
2023/06/04 03:13:19;;;;;;;;;;;;;;;23.53;62.83;98690.03;2081575;28;20443;-54
2023/06/04 03:14:20;;;;;;;;;;;;;;;23.52;62.98;98679.47;2086798;28;19956;-56
2023/06/04 03:15:21;;;;;;;;;;;;;;;23.53;62.92;98681.09;2083865;28;19924;-54
2023/06/04 03:16:22;;;;;;;;;;;;;;;23.52;63.08;98684.88;2085945;28;19967;-56
2023/06/04 03:17:23;;;;;;;;;;;;;;;23.53;62.74;98683.81;2086125;28;19920;-53
2023/06/04 03:18:24;;;;;;;;;;;;;;;23.52;63.06;98674.06;2089589;28;20309;-52
2023/06/04 03:19:25;;;;;;;;;;;;;;;23.51;63.09;98681.31;2089914;28;19924;-55
2023/06/04 03:20:26;;;;;;;;;;;;;;;23.49;62.99;98675.34;2088994;28;19959;-53
2023/06/04 03:21:28;;;;;;;;;;;;;;;23.49;63.26;98677.22;2087996;28;19924;-54
2023/06/04 03:22:30;;;;;;;;;;;;;;;23.50;62.72;98678.88;2090520;28;19928;-54
2023/06/04 03:23:33;;;;;;;;;;;;;;;23.50;62.96;98676.16;2087117;28;19969;-53
2023/06/04 03:24:34;;;;;;;;;;;;;;;23.50;62.80;98676.16;2092237;28;19955;-54
2023/06/04 03:25:36;;;;;;;;;;;;;;;23.51;62.76;98675.09;2088034;28;20010;-54
2023/06/04 03:26:36;;;;;;;;;;;;;;;23.53;62.46;98675.69;2086908;28;20022;-53
2023/06/04 03:27:38;;;;;;;;;;;;;;;23.53;62.80;98681.91;2082842;28;19928;-52
2023/06/04 03:28:38;;;;;;;;;;;;;;;23.53;62.81;98681.09;2091477;28;19927;-53
2023/06/04 03:29:40;;;;;;;;;;;;;;;23.52;62.86;98679.47;2089822;28;20839;-53
2023/06/04 03:30:40;;;;;;;;;;;;;;;23.50;63.41;98678.88;2089229;28;20018;-53
2023/06/04 03:31:44;;;;;;;;;;;;;;;23.49;62.94;98679.94;2089316;28;20332;-53
2023/06/04 03:32:45;;;;;;;;;;;;;;;23.50;62.87;98676.16;2090836;28;19963;-52
2023/06/04 03:33:46;;;;;;;;;;;;;;;23.52;62.61;98674.88;2091111;28;19925;-53
2023/06/04 03:34:47;;;;;;;;;;;;;;;23.54;62.76;98672.75;2093363;28;19932;-52
2023/06/04 03:35:49;;;;;;;;;;;;;;;23.54;62.57;98675.47;2088206;28;19932;-52
2023/06/04 03:36:50;;;;;;;;;;;;;;;23.52;62.61;98679.47;2087402;28;19931;-53
2023/06/04 03:37:52;;;;;;;;;;;;;;;23.52;62.60;98679.47;2091071;28;19960;-50
2023/06/04 03:38:54;;;;;;;;;;;;;;;23.54;62.52;98674.63;2088284;28;19928;-51
2023/06/04 03:39:54;;;;;;;;;;;;;;;23.53;62.51;98681.91;2086700;28;19928;-51
2023/06/04 03:40:56;;;;;;;;;;;;;;;23.52;62.68;98676.75;2086135;28;19928;-53
2023/06/04 03:41:56;;;;;;;;;;;;;;;23.53;62.90;98681.09;2087944;28;19932;-54
2023/06/04 03:42:58;;;;;;;;;;;;;;;23.50;62.74;98685.09;2086283;28;19928;-54
2023/06/04 03:43:58;;;;;;;;;;;;;;;23.50;62.69;98685.09;2090614;28;19955;-54
2023/06/04 03:45:00;;;;;;;;;;;;;;;23.50;63.03;98687.00;2089720;28;19927;-52
2023/06/04 03:46:00;;;;;;;;;;;;;;;23.49;62.80;98679.94;2090623;28;19950;-53
2023/06/04 03:47:02;;;;;;;;;;;;;;;23.50;62.61;98687.00;2089207;28;19921;-53
2023/06/04 03:48:02;;;;;;;;;;;;;;;23.50;62.62;98678.88;2091279;28;20013;-54
2023/06/04 03:49:04;;;;;;;;;;;;;;;23.52;62.59;98690.28;2091777;28;19928;-55
2023/06/04 03:50:05;;;;;;;;;;;;;;;23.53;62.61;98686.50;2092036;28;20331;-53
2023/06/04 03:51:06;;;;;;;;;;;;;;;23.47;63.35;98682.03;2092745;28;19925;-54
2023/06/04 03:52:06;;;;;;;;;;;;;;;23.44;62.89;98686.03;2092417;28;19928;-52
2023/06/04 03:53:09;;;;;;;;;;;;;;;23.44;62.83;98687.94;2091072;28;19946;-52
2023/06/04 03:54:11;;;;;;;;;;;;;;;23.46;62.79;98692.06;2089599;28;19971;-54
2023/06/04 03:55:13;;;;;;;;;;;;;;;23.48;62.86;98692.63;2086285;28;20354;-51
2023/06/04 03:56:14;;;;;;;;;;;;;;;23.48;62.65;98697.22;2087568;28;20537;-54
2023/06/04 03:57:15;;;;;;;;;;;;;;;23.49;62.62;98693.47;2085096;28;19924;-53
2023/06/04 03:58:16;;;;;;;;;;;;;;;23.49;62.54;98683.47;2086556;28;19964;-52
2023/06/04 03:59:17;;;;;;;;;;;;;;;23.51;62.47;98689.44;2089505;28;19935;-52
2023/06/04 04:00:20;;;;;;;;;;;;;;;23.52;62.53;98687.59;2082549;28;20019;-53
2023/06/04 04:01:23;;;;;;;;;;;;;;;23.49;62.53;98686.16;2087889;28;19921;-51
2023/06/04 04:02:23;;;;;;;;;;;;;;;23.51;62.70;98688.63;2086681;28;19924;-54
2023/06/04 04:03:25;;;;;;;;;;;;;;;23.52;62.58;98687.59;2084385;28;19970;-50
2023/06/04 04:04:25;;;;;;;;;;;;;;;23.52;62.45;98687.59;2087111;28;20000;-54
2023/06/04 04:05:27;;;;;;;;;;;;;;;23.51;62.61;98680.50;2086132;28;19924;-51
2023/06/04 04:06:27;;;;;;;;;;;;;;;23.49;62.63;98690.75;2086070;28;20236;-51
2023/06/04 04:07:29;;;;;;;;;;;;;;;23.50;62.56;98689.69;2089382;28;19928;-52
2023/06/04 04:08:31;;;;;;;;;;;;;;;23.50;62.88;98690.50;2088805;28;20370;-54
2023/06/04 04:09:32;;;;;;;;;;;;;;;23.50;62.48;98687.81;2088247;28;20429;-52
2023/06/04 04:10:33;;;;;;;;;;;;;;;23.46;62.78;98686.63;2090808;28;20023;-51
2023/06/04 04:11:34;;;;;;;;;;;;;;;23.48;62.53;98695.31;2089987;28;19932;-50
2023/06/04 04:12:35;;;;;;;;;;;;;;;23.47;62.47;98688.28;2090057;28;20592;-53
2023/06/04 04:13:36;;;;;;;;;;;;;;;23.50;62.62;98692.41;2092845;28;19929;-52
2023/06/04 04:14:37;;;;;;;;;;;;;;;23.50;62.59;98697.81;2088137;28;20913;-52
2023/06/04 04:15:38;;;;;;;;;;;;;;;23.48;62.76;98700.75;2088943;28;19986;-53
2023/06/04 04:16:39;;;;;;;;;;;;;;;23.49;62.41;98701.59;2087237;28;20024;-51
2023/06/04 04:17:40;;;;;;;;;;;;;;;23.49;62.50;98698.88;2089507;28;20286;-53
2023/06/04 04:18:42;;;;;;;;;;;;;;;23.45;62.68;98692.28;2091906;28;20146;-52
2023/06/04 04:19:43;;;;;;;;;;;;;;;23.42;62.62;98697.09;2090256;28;20432;-54
2023/06/04 04:20:45;;;;;;;;;;;;;;;23.44;62.76;98698.75;2086413;28;19933;-54
2023/06/04 04:21:48;;;;;;;;;;;;;;;23.45;62.73;98697.69;2090419;28;20279;-51
2023/06/04 04:22:49;;;;;;;;;;;;;;;23.45;62.54;98694.97;2091583;28;20044;-52
2023/06/04 04:23:52;;;;;;;;;;;;;;;23.44;62.62;98693.34;2083300;28;19936;-54
2023/06/04 04:24:53;;;;;;;;;;;;;;;23.45;62.50;98692.28;2085908;28;19920;-52
2023/06/04 04:25:56;;;;;;;;;;;;;;;23.45;62.56;98692.28;2084033;28;20059;-55
2023/06/04 04:26:58;;;;;;;;;;;;;;;23.46;62.48;98680.38;2087556;28;20020;-55
2023/06/04 04:28:00;;;;;;;;;;;;;;;23.45;62.53;98684.97;2089665;28;19948;-54
2023/06/04 04:29:00;;;;;;;;;;;;;;;23.45;62.65;98684.97;2092152;28;19936;-55
2023/06/04 04:30:02;;;;;;;;;;;;;;;23.44;62.48;98680.63;2091863;28;19987;-53
2023/06/04 04:31:02;;;;;;;;;;;;;;;23.46;62.64;98677.66;2094230;28;19942;-52
2023/06/04 04:32:10;;;;;;;;;;;;;;;23.46;62.58;98683.09;2091588;28;19966;-53
2023/06/04 04:33:10;;;;;;;;;;;;;;;23.45;62.74;98673.31;2090281;28;19987;-51
2023/06/04 04:34:12;;;;;;;;;;;;;;;23.43;62.91;98676.28;2091321;28;19928;-55
2023/06/04 04:35:12;;;;;;;;;;;;;;;23.41;62.83;98679.22;2086248;28;19981;-53
2023/06/04 04:36:14;;;;;;;;;;;;;;;23.43;62.72;98681.69;2087979;28;19920;-53
2023/06/04 04:37:14;;;;;;;;;;;;;;;23.38;62.90;98679.69;2088114;28;19928;-52
2023/06/04 04:38:17;;;;;;;;;;;;;;;23.38;63.12;98685.09;2090418;28;19928;-51
2023/06/04 04:39:19;;;;;;;;;;;;;;;23.38;63.19;98678.88;2086943;28;19928;-54
2023/06/04 04:40:21;;;;;;;;;;;;;;;23.36;63.28;98679.09;2085746;28;19974;-54
2023/06/04 04:41:22;;;;;;;;;;;;;;;23.38;63.07;98685.09;2089800;28;20485;-54
2023/06/04 04:42:24;;;;;;;;;;;;;;;23.38;63.15;98679.69;2091956;28;19925;-50
2023/06/04 04:43:31;;;;;;;;;;;;;;;23.40;62.82;98683.00;2084641;28;19964;-52
2023/06/04 04:44:32;;;;;;;;;;;;;;;23.41;62.99;98687.34;2088773;28;19924;-54
2023/06/04 04:45:32;;;;;;;;;;;;;;;23.38;63.24;98685.09;2087324;28;19924;-55
2023/06/04 04:46:34;;;;;;;;;;;;;;;23.39;63.10;98688.63;2088242;28;19932;-54
2023/06/04 04:47:35;;;;;;;;;;;;;;;23.40;62.86;98687.56;2085341;28;19929;-53
2023/06/04 04:48:38;;;;;;;;;;;;;;;23.41;62.77;98684.63;2086098;28;19925;-53
2023/06/04 04:49:38;;;;;;;;;;;;;;;23.40;62.96;98676.72;2088780;28;19924;-53
2023/06/04 04:50:40;;;;;;;;;;;;;;;23.40;62.86;98683.00;2090298;28;20002;-53
2023/06/04 04:51:41;;;;;;;;;;;;;;;23.40;62.95;98690.25;2089932;28;20023;-52
2023/06/04 04:52:42;;;;;;;;;;;;;;;23.40;62.80;98688.41;2090662;28;20027;-53
2023/06/04 04:53:43;;;;;;;;;;;;;;;23.39;62.81;98686.72;2090479;28;19980;-54
2023/06/04 04:54:45;;;;;;;;;;;;;;;23.40;62.87;98688.41;2086884;28;19929;-53
2023/06/04 04:55:46;;;;;;;;;;;;;;;23.40;62.97;98687.56;2084516;28;19970;-52
2023/06/04 04:56:48;;;;;;;;;;;;;;;23.39;62.73;98692.16;2083348;28;19921;-53
2023/06/04 04:57:48;;;;;;;;;;;;;;;23.37;62.99;98686.16;2083835;28;19948;-51
2023/06/04 04:58:50;;;;;;;;;;;;;;;23.34;62.86;98691.19;2079843;28;19924;-51
2023/06/04 04:59:50;;;;;;;;;;;;;;;23.34;62.82;98691.19;2082387;28;20042;-52
2023/06/04 05:00:52;;;;;;;;;;;;;;;23.34;63.13;98691.19;2081701;28;19920;-52
2023/06/04 05:01:52;;;;;;;;;;;;;;;23.35;62.97;98693.69;2088843;28;20008;-54
2023/06/04 05:02:54;;;;;;;;;;;;;;;23.39;62.81;98692.16;2083220;28;20761;-53
2023/06/04 05:03:55;;;;;;;;;;;;;;;23.38;62.65;98695.91;2089547;28;20011;-52
2023/06/04 05:04:56;;;;;;;;;;;;;;;23.37;62.68;98688.88;2085619;28;20011;-54
2023/06/04 05:05:57;;;;;;;;;;;;;;;23.39;62.53;98691.31;2087800;28;19924;-55
2023/06/04 05:06:58;;;;;;;;;;;;;;;23.41;62.38;98689.22;2084083;28;19928;-53
2023/06/04 05:07:59;;;;;;;;;;;;;;;23.39;62.45;98686.72;2087196;28;20020;-52
2023/06/04 05:09:00;;;;;;;;;;;;;;;23.38;62.49;98695.09;2086825;28;19939;-51
2023/06/04 05:10:02;;;;;;;;;;;;;;;23.36;62.43;98687.19;2082448;28;19971;-52
2023/06/04 05:11:04;;;;;;;;;;;;;;;23.37;62.49;98688.88;2082979;28;19951;-52
2023/06/04 05:12:05;;;;;;;;;;;;;;;23.37;62.74;98694.28;2087879;28;19920;-50
2023/06/04 05:13:06;;;;;;;;;;;;;;;23.38;62.46;98695.91;2083291;28;19978;-51
2023/06/04 05:14:07;;;;;;;;;;;;;;;23.39;62.47;98696.75;2085540;28;19921;-51
2023/06/04 05:15:12;;;;;;;;;;;;;;;23.36;62.52;98695.31;2084746;28;19936;-53
2023/06/04 05:16:13;;;;;;;;;;;;;;;23.36;62.68;98695.31;2084807;28;19981;-52
2023/06/04 05:17:16;;;;;;;;;;;;;;;23.35;62.79;98695.56;2085264;28;19928;-51
2023/06/04 05:18:16;;;;;;;;;;;;;;;23.36;62.53;98699.91;2082235;28;19924;-52
2023/06/04 05:19:18;;;;;;;;;;;;;;;23.35;62.50;98707.22;2083187;28;19935;-51
2023/06/04 05:20:18;;;;;;;;;;;;;;;23.37;62.52;98699.69;2086283;28;19928;-50
2023/06/04 05:21:20;;;;;;;;;;;;;;;23.35;62.54;98704.50;2090305;28;19920;-50